sensor_id;sensor_type;location;lat;lon;timestamp;temperature;humidity
41427;DHT22;27171;51.812;19.514;2023-01-15T00:02:02;5.20;99.90
41427;DHT22;27171;51.812;19.514;2023-01-15T00:05:03;5.20;99.90
41427;DHT22;27171;51.812;19.514;2023-01-15T00:08:04;5.20;99.90
41427;DHT22;27171;51.812;19.514;2023-01-15T00:11:05;5.20;99.90
41427;DHT22;27171;51.812;19.514;2023-01-15T00:14:06;5.20;99.90
41427;DHT22;27171;51.812;19.514;2023-01-15T00:17:08;5.20;99.90
41427;DHT22;27171;51.812;19.514;2023-01-15T00:20:09;5.20;99.90
41427;DHT22;27171;51.812;19.514;2023-01-15T00:23:11;5.20;99.90
41427;DHT22;27171;51.812;19.514;2023-01-15T00:26:12;5.20;99.90
41427;DHT22;27171;51.812;19.514;2023-01-15T00:29:16;5.30;99.90
41427;DHT22;27171;51.812;19.514;2023-01-15T00:32:17;5.20;99.90
41427;DHT22;27171;51.812;19.514;2023-01-15T00:35:19;5.20;99.90
41427;DHT22;27171;51.812;19.514;2023-01-15T00:38:21;5.20;99.90
41427;DHT22;27171;51.812;19.514;2023-01-15T00:41:22;5.20;99.90
41427;DHT22;27171;51.812;19.514;2023-01-15T00:44:23;5.30;99.90
41427;DHT22;27171;51.812;19.514;2023-01-15T00:47:25;5.30;99.90
41427;DHT22;27171;51.812;19.514;2023-01-15T00:50:26;5.30;99.90
41427;DHT22;27171;51.812;19.514;2023-01-15T00:53:27;5.30;99.90
41427;DHT22;27171;51.812;19.514;2023-01-15T00:56:29;5.30;99.90
41427;DHT22;27171;51.812;19.514;2023-01-15T00:59:30;5.30;99.90
41427;DHT22;27171;51.812;19.514;2023-01-15T01:02:31;5.30;99.90
41427;DHT22;27171;51.812;19.514;2023-01-15T01:05:32;5.30;99.90
41427;DHT22;27171;51.812;19.514;2023-01-15T01:08:34;5.40;99.90
41427;DHT22;27171;51.812;19.514;2023-01-15T01:11:35;5.30;99.90
41427;DHT22;27171;51.812;19.514;2023-01-15T01:14:37;5.30;99.90
41427;DHT22;27171;51.812;19.514;2023-01-15T01:17:38;5.30;99.90
41427;DHT22;27171;51.812;19.514;2023-01-15T01:20:39;5.30;99.90
41427;DHT22;27171;51.812;19.514;2023-01-15T01:23:40;5.30;99.90
41427;DHT22;27171;51.812;19.514;2023-01-15T01:26:42;5.30;99.90
41427;DHT22;27171;51.812;19.514;2023-01-15T01:29:43;5.30;99.90
41427;DHT22;27171;51.812;19.514;2023-01-15T01:32:45;5.30;99.90
41427;DHT22;27171;51.812;19.514;2023-01-15T01:35:49;5.30;99.90
41427;DHT22;27171;51.812;19.514;2023-01-15T01:38:50;5.30;99.90
41427;DHT22;27171;51.812;19.514;2023-01-15T01:41:52;5.30;99.90
41427;DHT22;27171;51.812;19.514;2023-01-15T01:44:56;5.40;99.90
41427;DHT22;27171;51.812;19.514;2023-01-15T01:48:02;5.40;99.90
41427;DHT22;27171;51.812;19.514;2023-01-15T01:51:04;5.30;99.90
41427;DHT22;27171;51.812;19.514;2023-01-15T01:54:09;5.40;99.90
41427;DHT22;27171;51.812;19.514;2023-01-15T01:57:11;5.40;99.90
41427;DHT22;27171;51.812;19.514;2023-01-15T02:00:12;5.40;99.90
41427;DHT22;27171;51.812;19.514;2023-01-15T02:03:20;5.40;99.90
41427;DHT22;27171;51.812;19.514;2023-01-15T02:06:24;5.30;99.90
41427;DHT22;27171;51.812;19.514;2023-01-15T02:09:26;5.30;99.90
41427;DHT22;27171;51.812;19.514;2023-01-15T02:12:34;5.30;99.90
41427;DHT22;27171;51.812;19.514;2023-01-15T02:15:44;5.30;99.90
41427;DHT22;27171;51.812;19.514;2023-01-15T02:18:57;5.30;99.90
41427;DHT22;27171;51.812;19.514;2023-01-15T02:22:21;5.30;99.90
41427;DHT22;27171;51.812;19.514;2023-01-15T02:25:40;5.20;99.90
41427;DHT22;27171;51.812;19.514;2023-01-15T02:28:45;5.20;99.90
41427;DHT22;27171;51.812;19.514;2023-01-15T02:31:49;5.20;99.90
41427;DHT22;27171;51.812;19.514;2023-01-15T02:34:55;5.10;99.90
41427;DHT22;27171;51.812;19.514;2023-01-15T02:38:04;5.10;99.90
41427;DHT22;27171;51.812;19.514;2023-01-15T02:41:08;5.00;99.90
41427;DHT22;27171;51.812;19.514;2023-01-15T02:44:15;5.00;99.90
41427;DHT22;27171;51.812;19.514;2023-01-15T02:47:25;5.00;99.90
41427;DHT22;27171;51.812;19.514;2023-01-15T02:50:31;4.90;99.90
41427;DHT22;27171;51.812;19.514;2023-01-15T02:53:37;4.90;99.90
41427;DHT22;27171;51.812;19.514;2023-01-15T02:56:41;4.90;99.90
41427;DHT22;27171;51.812;19.514;2023-01-15T02:59:47;4.80;99.90
41427;DHT22;27171;51.812;19.514;2023-01-15T03:02:59;4.80;99.90
41427;DHT22;27171;51.812;19.514;2023-01-15T03:06:17;4.70;99.90
41427;DHT22;27171;51.812;19.514;2023-01-15T03:09:20;4.70;99.90
41427;DHT22;27171;51.812;19.514;2023-01-15T03:12:29;4.70;99.90
41427;DHT22;27171;51.812;19.514;2023-01-15T03:18:55;4.60;99.90
41427;DHT22;27171;51.812;19.514;2023-01-15T03:22:33;4.60;99.90
41427;DHT22;27171;51.812;19.514;2023-01-15T03:25:43;4.60;99.90
41427;DHT22;27171;51.812;19.514;2023-01-15T03:28:46;4.60;99.90
41427;DHT22;27171;51.812;19.514;2023-01-15T03:31:48;4.60;99.90
41427;DHT22;27171;51.812;19.514;2023-01-15T03:34:55;4.60;99.90
41427;DHT22;27171;51.812;19.514;2023-01-15T03:37:57;4.60;99.90
41427;DHT22;27171;51.812;19.514;2023-01-15T03:41:02;4.60;99.90
41427;DHT22;27171;51.812;19.514;2023-01-15T03:51:00;4.70;99.90
41427;DHT22;27171;51.812;19.514;2023-01-15T03:53:52;4.70;99.90
41427;DHT22;27171;51.812;19.514;2023-01-15T03:57:03;4.70;99.90
41427;DHT22;27171;51.812;19.514;2023-01-15T04:00:16;4.70;99.90
41427;DHT22;27171;51.812;19.514;2023-01-15T04:03:22;4.70;99.90
41427;DHT22;27171;51.812;19.514;2023-01-15T04:06:26;4.70;99.90
41427;DHT22;27171;51.812;19.514;2023-01-15T04:09:31;4.70;99.90
41427;DHT22;27171;51.812;19.514;2023-01-15T04:12:33;4.80;99.90
41427;DHT22;27171;51.812;19.514;2023-01-15T04:15:35;4.70;99.90
41427;DHT22;27171;51.812;19.514;2023-01-15T04:18:37;4.80;99.90
41427;DHT22;27171;51.812;19.514;2023-01-15T04:21:38;4.80;99.90
41427;DHT22;27171;51.812;19.514;2023-01-15T04:24:39;4.90;99.90
41427;DHT22;27171;51.812;19.514;2023-01-15T04:27:40;5.00;99.90
41427;DHT22;27171;51.812;19.514;2023-01-15T04:30:41;5.00;99.90
41427;DHT22;27171;51.812;19.514;2023-01-15T04:33:42;5.10;99.90
41427;DHT22;27171;51.812;19.514;2023-01-15T04:36:43;5.20;99.90
41427;DHT22;27171;51.812;19.514;2023-01-15T04:39:45;5.30;99.90
41427;DHT22;27171;51.812;19.514;2023-01-15T04:42:46;5.40;99.90
41427;DHT22;27171;51.812;19.514;2023-01-15T04:45:47;5.50;99.90
41427;DHT22;27171;51.812;19.514;2023-01-15T04:48:48;5.60;99.90
41427;DHT22;27171;51.812;19.514;2023-01-15T04:51:50;5.70;99.90
41427;DHT22;27171;51.812;19.514;2023-01-15T04:54:54;5.80;99.90
41427;DHT22;27171;51.812;19.514;2023-01-15T04:57:55;5.90;99.90
41427;DHT22;27171;51.812;19.514;2023-01-15T05:00:57;6.00;99.90
41427;DHT22;27171;51.812;19.514;2023-01-15T05:03:59;6.10;99.90
41427;DHT22;27171;51.812;19.514;2023-01-15T05:07:01;6.20;99.90
41427;DHT22;27171;51.812;19.514;2023-01-15T05:10:03;6.20;99.90
41427;DHT22;27171;51.812;19.514;2023-01-15T05:13:04;6.30;99.90
41427;DHT22;27171;51.812;19.514;2023-01-15T05:16:06;6.40;99.90
41427;DHT22;27171;51.812;19.514;2023-01-15T05:19:09;6.40;99.90
41427;DHT22;27171;51.812;19.514;2023-01-15T05:22:10;6.40;99.90
41427;DHT22;27171;51.812;19.514;2023-01-15T05:25:11;6.40;99.90
41427;DHT22;27171;51.812;19.514;2023-01-15T05:28:12;6.50;99.90
41427;DHT22;27171;51.812;19.514;2023-01-15T05:31:17;6.50;99.90
41427;DHT22;27171;51.812;19.514;2023-01-15T05:34:18;6.40;99.90
41427;DHT22;27171;51.812;19.514;2023-01-15T05:37:19;6.40;99.90
41427;DHT22;27171;51.812;19.514;2023-01-15T05:40:20;6.40;99.90
41427;DHT22;27171;51.812;19.514;2023-01-15T05:43:21;6.50;99.90
41427;DHT22;27171;51.812;19.514;2023-01-15T05:46:22;6.50;99.90
41427;DHT22;27171;51.812;19.514;2023-01-15T05:49:24;6.50;99.90
41427;DHT22;27171;51.812;19.514;2023-01-15T05:52:25;6.50;99.90
41427;DHT22;27171;51.812;19.514;2023-01-15T05:55:26;6.50;99.90
41427;DHT22;27171;51.812;19.514;2023-01-15T05:58:27;6.50;99.90
41427;DHT22;27171;51.812;19.514;2023-01-15T06:01:28;6.50;99.90
41427;DHT22;27171;51.812;19.514;2023-01-15T06:04:29;6.50;99.90
41427;DHT22;27171;51.812;19.514;2023-01-15T06:07:30;6.50;99.90
41427;DHT22;27171;51.812;19.514;2023-01-15T06:10:31;6.50;99.90
41427;DHT22;27171;51.812;19.514;2023-01-15T06:13:33;6.60;99.90
41427;DHT22;27171;51.812;19.514;2023-01-15T06:16:34;6.50;99.90
41427;DHT22;27171;51.812;19.514;2023-01-15T06:19:35;6.60;99.90
41427;DHT22;27171;51.812;19.514;2023-01-15T06:22:36;6.60;99.90
41427;DHT22;27171;51.812;19.514;2023-01-15T06:25:37;6.60;99.90
41427;DHT22;27171;51.812;19.514;2023-01-15T06:28:39;6.70;99.90
41427;DHT22;27171;51.812;19.514;2023-01-15T06:31:40;6.70;99.90
41427;DHT22;27171;51.812;19.514;2023-01-15T06:34:41;6.70;99.90
41427;DHT22;27171;51.812;19.514;2023-01-15T06:37:42;6.80;99.90
41427;DHT22;27171;51.812;19.514;2023-01-15T06:40:43;6.80;99.90
41427;DHT22;27171;51.812;19.514;2023-01-15T06:43:44;6.90;99.90
41427;DHT22;27171;51.812;19.514;2023-01-15T06:46:48;6.90;99.90
41427;DHT22;27171;51.812;19.514;2023-01-15T06:49:55;7.00;99.90
41427;DHT22;27171;51.812;19.514;2023-01-15T06:52:56;7.00;99.90
41427;DHT22;27171;51.812;19.514;2023-01-15T06:55:58;7.10;99.90
41427;DHT22;27171;51.812;19.514;2023-01-15T06:58:58;7.10;99.90
41427;DHT22;27171;51.812;19.514;2023-01-15T07:02:00;7.20;99.90
41427;DHT22;27171;51.812;19.514;2023-01-15T07:05:01;7.20;99.90
41427;DHT22;27171;51.812;19.514;2023-01-15T07:08:02;7.20;99.90
41427;DHT22;27171;51.812;19.514;2023-01-15T07:11:05;7.30;99.90
41427;DHT22;27171;51.812;19.514;2023-01-15T07:14:06;7.30;99.90
41427;DHT22;27171;51.812;19.514;2023-01-15T07:17:07;7.40;99.90
41427;DHT22;27171;51.812;19.514;2023-01-15T07:20:09;7.40;99.90
41427;DHT22;27171;51.812;19.514;2023-01-15T07:23:10;7.40;99.90
41427;DHT22;27171;51.812;19.514;2023-01-15T07:26:11;7.40;99.90
41427;DHT22;27171;51.812;19.514;2023-01-15T07:29:13;7.40;99.90
41427;DHT22;27171;51.812;19.514;2023-01-15T07:32:14;7.40;99.90
41427;DHT22;27171;51.812;19.514;2023-01-15T07:35:15;7.50;99.90
41427;DHT22;27171;51.812;19.514;2023-01-15T07:38:16;7.40;99.90
41427;DHT22;27171;51.812;19.514;2023-01-15T07:41:17;7.40;99.90
41427;DHT22;27171;51.812;19.514;2023-01-15T07:44:18;7.40;99.90
41427;DHT22;27171;51.812;19.514;2023-01-15T07:47:22;7.40;99.90
41427;DHT22;27171;51.812;19.514;2023-01-15T07:50:23;7.30;99.90
41427;DHT22;27171;51.812;19.514;2023-01-15T07:53:24;7.30;99.90
41427;DHT22;27171;51.812;19.514;2023-01-15T07:56:26;7.30;99.90
41427;DHT22;27171;51.812;19.514;2023-01-15T07:59:27;7.30;99.90
41427;DHT22;27171;51.812;19.514;2023-01-15T08:02:27;7.30;99.90
41427;DHT22;27171;51.812;19.514;2023-01-15T08:05:29;7.30;99.90
41427;DHT22;27171;51.812;19.514;2023-01-15T08:08:30;7.20;99.90
41427;DHT22;27171;51.812;19.514;2023-01-15T08:11:32;7.30;99.90
41427;DHT22;27171;51.812;19.514;2023-01-15T08:14:33;7.20;99.90
41427;DHT22;27171;51.812;19.514;2023-01-15T08:17:34;7.20;99.90
41427;DHT22;27171;51.812;19.514;2023-01-15T08:20:36;7.20;99.90
41427;DHT22;27171;51.812;19.514;2023-01-15T08:23:36;7.20;99.90
41427;DHT22;27171;51.812;19.514;2023-01-15T08:26:37;7.20;99.90
41427;DHT22;27171;51.812;19.514;2023-01-15T08:29:39;7.10;99.90
41427;DHT22;27171;51.812;19.514;2023-01-15T08:32:40;7.10;99.90
41427;DHT22;27171;51.812;19.514;2023-01-15T08:35:41;7.10;99.90
41427;DHT22;27171;51.812;19.514;2023-01-15T08:38:43;7.10;99.90
41427;DHT22;27171;51.812;19.514;2023-01-15T08:41:44;7.10;99.90
41427;DHT22;27171;51.812;19.514;2023-01-15T08:44:46;7.10;99.90
41427;DHT22;27171;51.812;19.514;2023-01-15T08:47:47;7.00;99.90
41427;DHT22;27171;51.812;19.514;2023-01-15T08:50:48;7.00;99.90
41427;DHT22;27171;51.812;19.514;2023-01-15T08:53:49;7.00;99.90
41427;DHT22;27171;51.812;19.514;2023-01-15T08:56:50;7.00;99.90
41427;DHT22;27171;51.812;19.514;2023-01-15T08:59:51;7.00;99.90
41427;DHT22;27171;51.812;19.514;2023-01-15T09:02:52;6.90;99.90
41427;DHT22;27171;51.812;19.514;2023-01-15T09:05:53;6.90;99.90
41427;DHT22;27171;51.812;19.514;2023-01-15T09:09:00;6.80;99.90
41427;DHT22;27171;51.812;19.514;2023-01-15T09:12:01;6.80;99.90
41427;DHT22;27171;51.812;19.514;2023-01-15T09:15:03;6.80;99.90
41427;DHT22;27171;51.812;19.514;2023-01-15T09:18:05;6.80;99.90
41427;DHT22;27171;51.812;19.514;2023-01-15T09:21:06;6.70;99.90
41427;DHT22;27171;51.812;19.514;2023-01-15T09:24:07;6.70;99.90
41427;DHT22;27171;51.812;19.514;2023-01-15T09:27:11;6.70;99.90
41427;DHT22;27171;51.812;19.514;2023-01-15T09:30:16;6.70;99.90
41427;DHT22;27171;51.812;19.514;2023-01-15T09:33:18;6.60;99.90
41427;DHT22;27171;51.812;19.514;2023-01-15T09:36:26;6.60;99.90
41427;DHT22;27171;51.812;19.514;2023-01-15T09:39:27;6.50;99.90
41427;DHT22;27171;51.812;19.514;2023-01-15T09:45:54;6.50;99.90
41427;DHT22;27171;51.812;19.514;2023-01-15T09:55:49;6.30;99.90
41427;DHT22;27171;51.812;19.514;2023-01-15T09:58:51;6.30;99.90
41427;DHT22;27171;51.812;19.514;2023-01-15T10:01:53;6.30;99.90
41427;DHT22;27171;51.812;19.514;2023-01-15T10:05:11;6.20;99.90
41427;DHT22;27171;51.812;19.514;2023-01-15T10:08:23;6.20;99.90
41427;DHT22;27171;51.812;19.514;2023-01-15T10:11:37;6.10;99.90
41427;DHT22;27171;51.812;19.514;2023-01-15T10:17:59;6.10;99.90
41427;DHT22;27171;51.812;19.514;2023-01-15T10:27:45;6.00;99.90
41427;DHT22;27171;51.812;19.514;2023-01-15T10:30:52;6.00;99.90
41427;DHT22;27171;51.812;19.514;2023-01-15T10:37:31;6.00;99.90
41427;DHT22;27171;51.812;19.514;2023-01-15T10:44:07;6.00;99.90
41427;DHT22;27171;51.812;19.514;2023-01-15T10:50:32;6.00;99.90
41427;DHT22;27171;51.812;19.514;2023-01-15T10:53:54;6.00;99.90
41427;DHT22;27171;51.812;19.514;2023-01-15T11:00:27;6.00;99.90
41427;DHT22;27171;51.812;19.514;2023-01-15T11:03:38;6.00;99.90
41427;DHT22;27171;51.812;19.514;2023-01-15T11:06:40;6.10;99.90
41427;DHT22;27171;51.812;19.514;2023-01-15T11:09:42;6.10;99.90
41427;DHT22;27171;51.812;19.514;2023-01-15T11:13:14;6.10;99.90
41427;DHT22;27171;51.812;19.514;2023-01-15T11:16:24;6.10;99.90
41427;DHT22;27171;51.812;19.514;2023-01-15T11:19:32;6.10;99.90
41427;DHT22;27171;51.812;19.514;2023-01-15T11:22:37;6.10;99.90
41427;DHT22;27171;51.812;19.514;2023-01-15T11:26:00;6.20;99.90
41427;DHT22;27171;51.812;19.514;2023-01-15T11:29:14;6.20;99.90
41427;DHT22;27171;51.812;19.514;2023-01-15T11:32:36;6.20;99.90
41427;DHT22;27171;51.812;19.514;2023-01-15T11:35:51;6.20;99.90
41427;DHT22;27171;51.812;19.514;2023-01-15T11:38:53;6.20;99.90
41427;DHT22;27171;51.812;19.514;2023-01-15T11:41:59;6.20;99.90
41427;DHT22;27171;51.812;19.514;2023-01-15T11:45:00;6.20;99.90
41427;DHT22;27171;51.812;19.514;2023-01-15T11:51:21;6.30;99.90
41427;DHT22;27171;51.812;19.514;2023-01-15T11:54:24;6.30;99.90
41427;DHT22;27171;51.812;19.514;2023-01-15T11:57:30;6.30;99.90
41427;DHT22;27171;51.812;19.514;2023-01-15T12:00:36;6.30;99.90
41427;DHT22;27171;51.812;19.514;2023-01-15T12:03:39;6.40;99.90
41427;DHT22;27171;51.812;19.514;2023-01-15T12:06:40;6.40;99.90
41427;DHT22;27171;51.812;19.514;2023-01-15T12:16:06;6.50;99.90
41427;DHT22;27171;51.812;19.514;2023-01-15T12:19:26;6.50;99.90
41427;DHT22;27171;51.812;19.514;2023-01-15T12:22:52;6.60;99.90
41427;DHT22;27171;51.812;19.514;2023-01-15T12:26:12;6.60;99.90
41427;DHT22;27171;51.812;19.514;2023-01-15T12:29:28;6.60;99.90
41427;DHT22;27171;51.812;19.514;2023-01-15T12:32:36;6.60;99.90
41427;DHT22;27171;51.812;19.514;2023-01-15T12:35:43;6.60;99.90
41427;DHT22;27171;51.812;19.514;2023-01-15T12:41:56;6.70;99.90
41427;DHT22;27171;51.812;19.514;2023-01-15T12:45:03;6.70;99.90
41427;DHT22;27171;51.812;19.514;2023-01-15T12:48:18;6.70;99.90
41427;DHT22;27171;51.812;19.514;2023-01-15T12:51:50;6.70;99.90
41427;DHT22;27171;51.812;19.514;2023-01-15T13:11:27;6.80;99.90
41427;DHT22;27171;51.812;19.514;2023-01-15T13:14:28;6.80;99.90
41427;DHT22;27171;51.812;19.514;2023-01-15T13:17:50;6.80;99.90
41427;DHT22;27171;51.812;19.514;2023-01-15T13:20:51;6.80;99.90
41427;DHT22;27171;51.812;19.514;2023-01-15T13:30:52;6.90;99.90
41427;DHT22;27171;51.812;19.514;2023-01-15T13:34:00;6.90;99.90
41427;DHT22;27171;51.812;19.514;2023-01-15T13:37:30;6.90;99.90
41427;DHT22;27171;51.812;19.514;2023-01-15T13:40:38;6.90;99.90
41427;DHT22;27171;51.812;19.514;2023-01-15T13:43:41;6.90;99.90
41427;DHT22;27171;51.812;19.514;2023-01-15T13:46:44;6.90;99.90
41427;DHT22;27171;51.812;19.514;2023-01-15T13:49:48;6.90;99.90
41427;DHT22;27171;51.812;19.514;2023-01-15T13:52:59;6.90;99.90
41427;DHT22;27171;51.812;19.514;2023-01-15T13:56:07;7.00;99.90
41427;DHT22;27171;51.812;19.514;2023-01-15T14:02:37;6.90;99.90
41427;DHT22;27171;51.812;19.514;2023-01-15T14:05:38;7.00;99.90
41427;DHT22;27171;51.812;19.514;2023-01-15T14:08:44;6.90;99.90
41427;DHT22;27171;51.812;19.514;2023-01-15T14:35:17;6.90;99.90
41427;DHT22;27171;51.812;19.514;2023-01-15T14:38:25;6.90;99.90
41427;DHT22;27171;51.812;19.514;2023-01-15T14:41:32;6.90;99.90
41427;DHT22;27171;51.812;19.514;2023-01-15T14:44:35;7.00;99.90
41427;DHT22;27171;51.812;19.514;2023-01-15T14:47:51;6.90;99.90
41427;DHT22;27171;51.812;19.514;2023-01-15T14:50:53;6.90;99.90
41427;DHT22;27171;51.812;19.514;2023-01-15T14:53:56;6.90;99.90
41427;DHT22;27171;51.812;19.514;2023-01-15T14:56:59;6.90;99.90
41427;DHT22;27171;51.812;19.514;2023-01-15T15:00:02;6.90;99.90
41427;DHT22;27171;51.812;19.514;2023-01-15T15:03:13;6.90;99.90
41427;DHT22;27171;51.812;19.514;2023-01-15T15:06:17;6.90;99.90
41427;DHT22;27171;51.812;19.514;2023-01-15T15:09:34;6.90;99.90
41427;DHT22;27171;51.812;19.514;2023-01-15T15:22:29;6.80;99.90
41427;DHT22;27171;51.812;19.514;2023-01-15T15:25:34;6.80;99.90
41427;DHT22;27171;51.812;19.514;2023-01-15T15:28:37;6.80;99.90
41427;DHT22;27171;51.812;19.514;2023-01-15T15:31:39;6.70;99.90
41427;DHT22;27171;51.812;19.514;2023-01-15T15:34:44;6.70;99.90
41427;DHT22;27171;51.812;19.514;2023-01-15T15:37:45;6.70;99.90
41427;DHT22;27171;51.812;19.514;2023-01-15T15:40:59;6.60;99.90
41427;DHT22;27171;51.812;19.514;2023-01-15T15:44:03;6.60;99.90
41427;DHT22;27171;51.812;19.514;2023-01-15T15:47:23;6.60;99.90
41427;DHT22;27171;51.812;19.514;2023-01-15T15:50:27;6.60;99.90
41427;DHT22;27171;51.812;19.514;2023-01-15T15:53:30;6.60;99.90
41427;DHT22;27171;51.812;19.514;2023-01-15T15:56:32;6.50;99.90
41427;DHT22;27171;51.812;19.514;2023-01-15T15:59:57;6.50;99.90
41427;DHT22;27171;51.812;19.514;2023-01-15T16:03:27;6.50;99.90
41427;DHT22;27171;51.812;19.514;2023-01-15T16:06:26;6.40;99.90
41427;DHT22;27171;51.812;19.514;2023-01-15T16:09:28;6.40;99.90
41427;DHT22;27171;51.812;19.514;2023-01-15T16:12:32;6.30;99.90
41427;DHT22;27171;51.812;19.514;2023-01-15T16:15:37;6.30;99.90
41427;DHT22;27171;51.812;19.514;2023-01-15T16:18:42;6.30;99.90
41427;DHT22;27171;51.812;19.514;2023-01-15T16:21:44;6.20;99.90
41427;DHT22;27171;51.812;19.514;2023-01-15T16:24:58;6.20;99.90
41427;DHT22;27171;51.812;19.514;2023-01-15T16:28:00;6.20;99.90
41427;DHT22;27171;51.812;19.514;2023-01-15T16:31:02;6.20;99.90
41427;DHT22;27171;51.812;19.514;2023-01-15T16:34:04;6.10;99.90
41427;DHT22;27171;51.812;19.514;2023-01-15T16:37:26;6.10;99.90
41427;DHT22;27171;51.812;19.514;2023-01-15T16:40:33;6.10;99.90
41427;DHT22;27171;51.812;19.514;2023-01-15T16:43:55;6.10;99.90
41427;DHT22;27171;51.812;19.514;2023-01-15T16:46:58;6.00;99.90
41427;DHT22;27171;51.812;19.514;2023-01-15T16:50:28;6.00;99.90
41427;DHT22;27171;51.812;19.514;2023-01-15T16:53:39;6.00;99.90
41427;DHT22;27171;51.812;19.514;2023-01-15T17:02:45;5.90;99.90
41427;DHT22;27171;51.812;19.514;2023-01-15T17:05:58;5.90;99.90
41427;DHT22;27171;51.812;19.514;2023-01-15T17:08:59;5.80;99.90
41427;DHT22;27171;51.812;19.514;2023-01-15T17:12:08;5.80;99.90
41427;DHT22;27171;51.812;19.514;2023-01-15T17:18:20;5.70;99.90
41427;DHT22;27171;51.812;19.514;2023-01-15T17:21:24;5.70;99.90
41427;DHT22;27171;51.812;19.514;2023-01-15T17:24:25;5.70;99.90
41427;DHT22;27171;51.812;19.514;2023-01-15T17:27:27;5.70;99.90
41427;DHT22;27171;51.812;19.514;2023-01-15T17:30:30;5.70;99.90
41427;DHT22;27171;51.812;19.514;2023-01-15T17:33:31;5.60;99.90
41427;DHT22;27171;51.812;19.514;2023-01-15T17:36:32;5.60;99.90
41427;DHT22;27171;51.812;19.514;2023-01-15T17:39:33;5.60;99.90
41427;DHT22;27171;51.812;19.514;2023-01-15T17:42:34;5.50;99.90
41427;DHT22;27171;51.812;19.514;2023-01-15T17:45:35;5.50;99.90
41427;DHT22;27171;51.812;19.514;2023-01-15T17:48:36;5.50;99.90
41427;DHT22;27171;51.812;19.514;2023-01-15T17:51:38;5.40;99.90
41427;DHT22;27171;51.812;19.514;2023-01-15T17:54:39;5.40;99.90
41427;DHT22;27171;51.812;19.514;2023-01-15T17:57:40;5.30;99.90
41427;DHT22;27171;51.812;19.514;2023-01-15T18:00:41;5.30;99.90
41427;DHT22;27171;51.812;19.514;2023-01-15T18:03:46;5.20;99.90
41427;DHT22;27171;51.812;19.514;2023-01-15T18:06:50;5.10;99.90
41427;DHT22;27171;51.812;19.514;2023-01-15T18:09:53;5.10;99.90
41427;DHT22;27171;51.812;19.514;2023-01-15T18:12:54;5.10;99.90
41427;DHT22;27171;51.812;19.514;2023-01-15T18:15:56;5.00;99.90
41427;DHT22;27171;51.812;19.514;2023-01-15T18:18:57;5.00;99.90
41427;DHT22;27171;51.812;19.514;2023-01-15T18:21:58;5.00;99.90
41427;DHT22;27171;51.812;19.514;2023-01-15T18:24:59;5.00;99.90
41427;DHT22;27171;51.812;19.514;2023-01-15T18:28:00;4.90;99.90
41427;DHT22;27171;51.812;19.514;2023-01-15T18:31:02;4.90;99.90
41427;DHT22;27171;51.812;19.514;2023-01-15T18:34:04;4.90;99.90
41427;DHT22;27171;51.812;19.514;2023-01-15T18:37:05;4.80;99.90
41427;DHT22;27171;51.812;19.514;2023-01-15T18:40:06;4.90;99.90
41427;DHT22;27171;51.812;19.514;2023-01-15T18:43:08;4.90;99.90
41427;DHT22;27171;51.812;19.514;2023-01-15T18:46:10;4.80;99.90
41427;DHT22;27171;51.812;19.514;2023-01-15T18:49:11;4.80;99.90
41427;DHT22;27171;51.812;19.514;2023-01-15T18:52:14;4.80;99.90
41427;DHT22;27171;51.812;19.514;2023-01-15T18:55:20;4.80;99.90
41427;DHT22;27171;51.812;19.514;2023-01-15T18:58:22;4.80;99.90
41427;DHT22;27171;51.812;19.514;2023-01-15T19:01:23;4.80;99.90
41427;DHT22;27171;51.812;19.514;2023-01-15T19:04:25;4.80;99.90
41427;DHT22;27171;51.812;19.514;2023-01-15T19:07:26;4.80;99.90
41427;DHT22;27171;51.812;19.514;2023-01-15T19:10:28;4.80;99.90
41427;DHT22;27171;51.812;19.514;2023-01-15T19:13:30;4.80;99.90
41427;DHT22;27171;51.812;19.514;2023-01-15T19:16:31;4.80;99.90
41427;DHT22;27171;51.812;19.514;2023-01-15T19:19:35;4.70;99.90
41427;DHT22;27171;51.812;19.514;2023-01-15T19:22:37;4.70;99.90
41427;DHT22;27171;51.812;19.514;2023-01-15T19:25:44;4.80;99.90
41427;DHT22;27171;51.812;19.514;2023-01-15T19:28:47;4.70;99.90
41427;DHT22;27171;51.812;19.514;2023-01-15T19:31:49;4.70;99.90
41427;DHT22;27171;51.812;19.514;2023-01-15T19:34:50;4.70;99.90
41427;DHT22;27171;51.812;19.514;2023-01-15T19:37:52;4.70;99.90
41427;DHT22;27171;51.812;19.514;2023-01-15T19:40:54;4.70;99.90
41427;DHT22;27171;51.812;19.514;2023-01-15T19:43:56;4.70;99.90
41427;DHT22;27171;51.812;19.514;2023-01-15T19:46:58;4.70;99.90
41427;DHT22;27171;51.812;19.514;2023-01-15T19:49:59;4.70;99.90
41427;DHT22;27171;51.812;19.514;2023-01-15T19:53:00;4.70;99.90
41427;DHT22;27171;51.812;19.514;2023-01-15T19:56:02;4.70;99.90
41427;DHT22;27171;51.812;19.514;2023-01-15T19:59:04;4.70;99.90
41427;DHT22;27171;51.812;19.514;2023-01-15T20:02:05;4.70;99.90
41427;DHT22;27171;51.812;19.514;2023-01-15T20:05:10;4.70;99.90
41427;DHT22;27171;51.812;19.514;2023-01-15T20:08:12;4.70;99.90
41427;DHT22;27171;51.812;19.514;2023-01-15T20:11:13;4.70;99.90
41427;DHT22;27171;51.812;19.514;2023-01-15T20:14:14;4.70;99.90
41427;DHT22;27171;51.812;19.514;2023-01-15T20:17:15;4.70;99.90
41427;DHT22;27171;51.812;19.514;2023-01-15T20:20:17;4.70;99.90
41427;DHT22;27171;51.812;19.514;2023-01-15T20:23:18;4.60;99.90
41427;DHT22;27171;51.812;19.514;2023-01-15T20:26:21;4.70;99.90
41427;DHT22;27171;51.812;19.514;2023-01-15T20:29:22;4.70;99.90
41427;DHT22;27171;51.812;19.514;2023-01-15T20:32:23;4.70;99.90
41427;DHT22;27171;51.812;19.514;2023-01-15T20:35:27;4.70;99.90
41427;DHT22;27171;51.812;19.514;2023-01-15T20:38:29;4.70;99.90
41427;DHT22;27171;51.812;19.514;2023-01-15T20:41:32;4.70;99.90
41427;DHT22;27171;51.812;19.514;2023-01-15T20:44:34;4.70;99.90
41427;DHT22;27171;51.812;19.514;2023-01-15T20:47:37;4.70;99.90
41427;DHT22;27171;51.812;19.514;2023-01-15T20:50:42;4.60;99.90
41427;DHT22;27171;51.812;19.514;2023-01-15T20:53:44;4.70;99.90
41427;DHT22;27171;51.812;19.514;2023-01-15T20:56:45;4.70;99.90
41427;DHT22;27171;51.812;19.514;2023-01-15T20:59:46;4.60;99.90
41427;DHT22;27171;51.812;19.514;2023-01-15T21:02:48;4.60;99.90
41427;DHT22;27171;51.812;19.514;2023-01-15T21:05:49;4.70;99.90
41427;DHT22;27171;51.812;19.514;2023-01-15T21:08:50;4.70;99.90
41427;DHT22;27171;51.812;19.514;2023-01-15T21:11:51;4.70;99.90
41427;DHT22;27171;51.812;19.514;2023-01-15T21:14:53;4.70;99.90
41427;DHT22;27171;51.812;19.514;2023-01-15T21:17:54;4.70;99.90
41427;DHT22;27171;51.812;19.514;2023-01-15T21:20:56;4.60;99.90
41427;DHT22;27171;51.812;19.514;2023-01-15T21:24:01;4.60;99.90
41427;DHT22;27171;51.812;19.514;2023-01-15T21:27:02;4.60;99.90
41427;DHT22;27171;51.812;19.514;2023-01-15T21:30:05;4.60;99.90